sensor_id;sensor_type;location;lat;lon;timestamp;P1;durP1;ratioP1;P2;durP2;ratioP2
71108;SDS011;59614;51.012;-1.648;2024-02-21T00:01:03;23.80;;;3.92;;
71108;SDS011;59614;51.012;-1.648;2024-02-21T00:03:29;20.40;;;4.20;;
71108;SDS011;59614;51.012;-1.648;2024-02-21T00:05:54;25.52;;;3.85;;
71108;SDS011;59614;51.012;-1.648;2024-02-21T00:08:19;19.73;;;4.82;;
71108;SDS011;59614;51.012;-1.648;2024-02-21T00:10:45;24.25;;;4.28;;
71108;SDS011;59614;51.012;-1.648;2024-02-21T00:13:10;22.73;;;3.92;;
71108;SDS011;59614;51.012;-1.648;2024-02-21T00:15:35;27.17;;;4.72;;
71108;SDS011;59614;51.012;-1.648;2024-02-21T00:18:01;26.00;;;3.92;;
71108;SDS011;59614;51.012;-1.648;2024-02-21T00:20:26;30.17;;;4.22;;
71108;SDS011;59614;51.012;-1.648;2024-02-21T00:22:51;23.52;;;3.85;;
71108;SDS011;59614;51.012;-1.648;2024-02-21T00:25:17;17.48;;;3.78;;
71108;SDS011;59614;51.012;-1.648;2024-02-21T00:27:43;19.20;;;4.45;;
71108;SDS011;59614;51.012;-1.648;2024-02-21T00:30:08;18.10;;;4.43;;
71108;SDS011;59614;51.012;-1.648;2024-02-21T00:32:34;22.48;;;4.03;;
71108;SDS011;59614;51.012;-1.648;2024-02-21T00:35:00;19.50;;;4.15;;
71108;SDS011;59614;51.012;-1.648;2024-02-21T00:37:26;20.85;;;3.92;;
71108;SDS011;59614;51.012;-1.648;2024-02-21T00:39:51;19.98;;;3.88;;
71108;SDS011;59614;51.012;-1.648;2024-02-21T00:42:18;19.00;;;3.70;;
71108;SDS011;59614;51.012;-1.648;2024-02-21T00:44:43;23.65;;;4.40;;
71108;SDS011;59614;51.012;-1.648;2024-02-21T00:47:09;23.40;;;4.40;;
71108;SDS011;59614;51.012;-1.648;2024-02-21T00:49:35;24.15;;;4.22;;
71108;SDS011;59614;51.012;-1.648;2024-02-21T00:52:00;22.90;;;4.68;;
71108;SDS011;59614;51.012;-1.648;2024-02-21T00:54:25;24.98;;;4.50;;
71108;SDS011;59614;51.012;-1.648;2024-02-21T00:56:51;18.85;;;3.58;;
71108;SDS011;59614;51.012;-1.648;2024-02-21T00:59:16;23.60;;;4.53;;
71108;SDS011;59614;51.012;-1.648;2024-02-21T01:01:42;23.00;;;4.32;;
71108;SDS011;59614;51.012;-1.648;2024-02-21T01:04:08;24.40;;;4.13;;
71108;SDS011;59614;51.012;-1.648;2024-02-21T01:06:34;18.10;;;3.85;;
71108;SDS011;59614;51.012;-1.648;2024-02-21T01:08:59;20.77;;;3.63;;
71108;SDS011;59614;51.012;-1.648;2024-02-21T01:11:25;17.48;;;3.42;;
71108;SDS011;59614;51.012;-1.648;2024-02-21T01:13:50;18.75;;;3.83;;
71108;SDS011;59614;51.012;-1.648;2024-02-21T01:16:15;21.25;;;3.88;;
71108;SDS011;59614;51.012;-1.648;2024-02-21T01:18:41;20.85;;;3.35;;
71108;SDS011;59614;51.012;-1.648;2024-02-21T01:21:06;21.98;;;3.67;;
71108;SDS011;59614;51.012;-1.648;2024-02-21T01:23:32;22.40;;;3.88;;
71108;SDS011;59614;51.012;-1.648;2024-02-21T01:25:59;13.48;;;3.67;;
71108;SDS011;59614;51.012;-1.648;2024-02-21T01:28:24;15.30;;;3.58;;
71108;SDS011;59614;51.012;-1.648;2024-02-21T01:30:50;12.30;;;3.20;;
71108;SDS011;59614;51.012;-1.648;2024-02-21T01:33:15;17.83;;;3.55;;
71108;SDS011;59614;51.012;-1.648;2024-02-21T01:35:41;16.08;;;3.33;;
71108;SDS011;59614;51.012;-1.648;2024-02-21T01:38:06;19.33;;;3.50;;
71108;SDS011;59614;51.012;-1.648;2024-02-21T01:40:31;17.33;;;3.30;;
71108;SDS011;59614;51.012;-1.648;2024-02-21T01:42:56;23.52;;;3.83;;
71108;SDS011;59614;51.012;-1.648;2024-02-21T01:45:22;21.83;;;4.65;;
71108;SDS011;59614;51.012;-1.648;2024-02-21T01:47:48;24.85;;;3.90;;
71108;SDS011;59614;51.012;-1.648;2024-02-21T01:50:14;19.38;;;3.50;;
71108;SDS011;59614;51.012;-1.648;2024-02-21T01:52:40;16.17;;;3.63;;
71108;SDS011;59614;51.012;-1.648;2024-02-21T01:57:35;16.77;;;4.05;;
71108;SDS011;59614;51.012;-1.648;2024-02-21T02:00:00;22.13;;;4.32;;
71108;SDS011;59614;51.012;-1.648;2024-02-21T02:02:26;14.63;;;3.05;;
71108;SDS011;59614;51.012;-1.648;2024-02-21T02:04:52;20.38;;;3.80;;
71108;SDS011;59614;51.012;-1.648;2024-02-21T02:07:17;26.38;;;3.83;;
71108;SDS011;59614;51.012;-1.648;2024-02-21T02:09:43;16.10;;;3.20;;
71108;SDS011;59614;51.012;-1.648;2024-02-21T02:12:08;20.55;;;4.00;;
71108;SDS011;59614;51.012;-1.648;2024-02-21T02:14:34;25.55;;;4.60;;
71108;SDS011;59614;51.012;-1.648;2024-02-21T02:16:59;25.20;;;5.78;;
71108;SDS011;59614;51.012;-1.648;2024-02-21T02:19:24;21.50;;;3.63;;
71108;SDS011;59614;51.012;-1.648;2024-02-21T02:21:50;27.55;;;3.97;;
71108;SDS011;59614;51.012;-1.648;2024-02-21T02:24:31;28.42;;;3.80;;
71108;SDS011;59614;51.012;-1.648;2024-02-21T02:26:56;26.25;;;4.30;;
71108;SDS011;59614;51.012;-1.648;2024-02-21T02:29:21;29.83;;;4.40;;
71108;SDS011;59614;51.012;-1.648;2024-02-21T02:31:47;21.98;;;3.47;;
71108;SDS011;59614;51.012;-1.648;2024-02-21T02:34:13;32.08;;;4.43;;
71108;SDS011;59614;51.012;-1.648;2024-02-21T02:36:39;22.48;;;3.53;;
71108;SDS011;59614;51.012;-1.648;2024-02-21T02:39:04;28.33;;;4.22;;
71108;SDS011;59614;51.012;-1.648;2024-02-21T02:41:29;20.15;;;3.45;;
71108;SDS011;59614;51.012;-1.648;2024-02-21T02:43:55;26.92;;;4.38;;
71108;SDS011;59614;51.012;-1.648;2024-02-21T02:46:20;32.20;;;4.20;;
71108;SDS011;59614;51.012;-1.648;2024-02-21T02:48:45;25.85;;;4.35;;
71108;SDS011;59614;51.012;-1.648;2024-02-21T02:51:11;27.67;;;3.97;;
71108;SDS011;59614;51.012;-1.648;2024-02-21T02:53:36;22.35;;;4.20;;
71108;SDS011;59614;51.012;-1.648;2024-02-21T02:56:01;26.08;;;3.50;;
71108;SDS011;59614;51.012;-1.648;2024-02-21T02:58:27;17.15;;;3.70;;
71108;SDS011;59614;51.012;-1.648;2024-02-21T03:00:53;23.67;;;3.63;;
71108;SDS011;59614;51.012;-1.648;2024-02-21T03:03:18;23.55;;;3.90;;
71108;SDS011;59614;51.012;-1.648;2024-02-21T03:05:44;36.45;;;4.05;;
71108;SDS011;59614;51.012;-1.648;2024-02-21T03:08:09;19.45;;;3.90;;
71108;SDS011;59614;51.012;-1.648;2024-02-21T03:10:34;23.35;;;4.00;;
71108;SDS011;59614;51.012;-1.648;2024-02-21T03:13:00;25.85;;;4.10;;
71108;SDS011;59614;51.012;-1.648;2024-02-21T03:15:25;23.25;;;4.38;;
71108;SDS011;59614;51.012;-1.648;2024-02-21T03:17:51;22.52;;;3.55;;
71108;SDS011;59614;51.012;-1.648;2024-02-21T03:20:16;23.13;;;3.47;;
71108;SDS011;59614;51.012;-1.648;2024-02-21T03:22:41;27.45;;;4.15;;
71108;SDS011;59614;51.012;-1.648;2024-02-21T03:25:07;24.60;;;4.15;;
71108;SDS011;59614;51.012;-1.648;2024-02-21T03:27:37;21.88;;;3.75;;
71108;SDS011;59614;51.012;-1.648;2024-02-21T03:30:03;28.88;;;4.03;;
71108;SDS011;59614;51.012;-1.648;2024-02-21T03:32:29;25.33;;;4.03;;
71108;SDS011;59614;51.012;-1.648;2024-02-21T03:34:54;23.48;;;3.75;;
71108;SDS011;59614;51.012;-1.648;2024-02-21T03:37:20;25.30;;;4.13;;
71108;SDS011;59614;51.012;-1.648;2024-02-21T03:39:45;20.30;;;3.55;;
71108;SDS011;59614;51.012;-1.648;2024-02-21T03:42:11;22.27;;;3.85;;
71108;SDS011;59614;51.012;-1.648;2024-02-21T03:44:36;27.98;;;3.92;;
71108;SDS011;59614;51.012;-1.648;2024-02-21T03:47:01;29.67;;;4.47;;
71108;SDS011;59614;51.012;-1.648;2024-02-21T03:49:27;24.00;;;3.70;;
71108;SDS011;59614;51.012;-1.648;2024-02-21T03:51:52;26.90;;;4.00;;
71108;SDS011;59614;51.012;-1.648;2024-02-21T03:54:18;20.48;;;3.88;;
71108;SDS011;59614;51.012;-1.648;2024-02-21T03:56:44;17.95;;;3.10;;
71108;SDS011;59614;51.012;-1.648;2024-02-21T03:59:09;14.95;;;3.30;;
71108;SDS011;59614;51.012;-1.648;2024-02-21T04:01:35;13.95;;;2.65;;
71108;SDS011;59614;51.012;-1.648;2024-02-21T04:04:00;23.45;;;3.75;;
71108;SDS011;59614;51.012;-1.648;2024-02-21T04:06:26;22.63;;;3.85;;
71108;SDS011;59614;51.012;-1.648;2024-02-21T04:08:51;27.98;;;3.97;;
71108;SDS011;59614;51.012;-1.648;2024-02-21T04:11:17;20.73;;;4.38;;
71108;SDS011;59614;51.012;-1.648;2024-02-21T04:13:43;17.02;;;3.33;;
71108;SDS011;59614;51.012;-1.648;2024-02-21T04:16:09;27.30;;;4.88;;
71108;SDS011;59614;51.012;-1.648;2024-02-21T04:18:34;17.60;;;4.07;;
71108;SDS011;59614;51.012;-1.648;2024-02-21T04:21:00;21.30;;;3.58;;
71108;SDS011;59614;51.012;-1.648;2024-02-21T04:23:25;24.35;;;4.22;;
71108;SDS011;59614;51.012;-1.648;2024-02-21T04:25:50;20.13;;;3.67;;
71108;SDS011;59614;51.012;-1.648;2024-02-21T04:28:16;21.33;;;3.55;;
71108;SDS011;59614;51.012;-1.648;2024-02-21T04:30:41;24.65;;;3.55;;
71108;SDS011;59614;51.012;-1.648;2024-02-21T04:33:06;23.27;;;3.53;;
71108;SDS011;59614;51.012;-1.648;2024-02-21T04:35:32;24.35;;;4.43;;
71108;SDS011;59614;51.012;-1.648;2024-02-21T04:37:57;14.10;;;2.95;;
71108;SDS011;59614;51.012;-1.648;2024-02-21T04:40:22;13.80;;;2.95;;
71108;SDS011;59614;51.012;-1.648;2024-02-21T04:42:48;19.33;;;3.05;;
71108;SDS011;59614;51.012;-1.648;2024-02-21T04:45:13;22.50;;;3.90;;
71108;SDS011;59614;51.012;-1.648;2024-02-21T04:47:39;23.35;;;3.30;;
71108;SDS011;59614;51.012;-1.648;2024-02-21T04:50:04;17.15;;;3.53;;
71108;SDS011;59614;51.012;-1.648;2024-02-21T04:52:31;14.45;;;3.78;;
71108;SDS011;59614;51.012;-1.648;2024-02-21T04:54:56;19.58;;;3.70;;
71108;SDS011;59614;51.012;-1.648;2024-02-21T04:57:21;27.92;;;3.95;;
71108;SDS011;59614;51.012;-1.648;2024-02-21T04:59:46;18.27;;;3.70;;
71108;SDS011;59614;51.012;-1.648;2024-02-21T05:02:13;18.33;;;3.42;;
71108;SDS011;59614;51.012;-1.648;2024-02-21T05:04:38;20.27;;;3.40;;
71108;SDS011;59614;51.012;-1.648;2024-02-21T05:07:05;15.25;;;3.10;;
71108;SDS011;59614;51.012;-1.648;2024-02-21T05:09:30;22.67;;;3.80;;
71108;SDS011;59614;51.012;-1.648;2024-02-21T05:11:56;22.20;;;3.88;;
71108;SDS011;59614;51.012;-1.648;2024-02-21T05:14:23;24.77;;;3.75;;
71108;SDS011;59614;51.012;-1.648;2024-02-21T05:16:49;16.25;;;3.40;;
71108;SDS011;59614;51.012;-1.648;2024-02-21T05:19:14;28.23;;;4.35;;
71108;SDS011;59614;51.012;-1.648;2024-02-21T05:21:40;17.35;;;4.22;;
71108;SDS011;59614;51.012;-1.648;2024-02-21T05:24:05;22.90;;;3.50;;
71108;SDS011;59614;51.012;-1.648;2024-02-21T05:26:30;19.88;;;3.45;;
71108;SDS011;59614;51.012;-1.648;2024-02-21T05:28:56;17.30;;;3.67;;
71108;SDS011;59614;51.012;-1.648;2024-02-21T05:31:21;14.65;;;3.20;;
71108;SDS011;59614;51.012;-1.648;2024-02-21T05:33:46;17.77;;;3.88;;
71108;SDS011;59614;51.012;-1.648;2024-02-21T05:36:12;16.88;;;3.78;;
71108;SDS011;59614;51.012;-1.648;2024-02-21T05:38:38;16.10;;;3.00;;
71108;SDS011;59614;51.012;-1.648;2024-02-21T05:41:03;16.10;;;3.20;;
71108;SDS011;59614;51.012;-1.648;2024-02-21T05:43:29;18.15;;;3.80;;
71108;SDS011;59614;51.012;-1.648;2024-02-21T05:45:55;22.77;;;3.60;;
71108;SDS011;59614;51.012;-1.648;2024-02-21T05:48:21;24.42;;;3.53;;
71108;SDS011;59614;51.012;-1.648;2024-02-21T05:50:47;21.63;;;3.70;;
71108;SDS011;59614;51.012;-1.648;2024-02-21T05:53:12;17.17;;;3.78;;
71108;SDS011;59614;51.012;-1.648;2024-02-21T05:55:38;19.80;;;3.75;;
71108;SDS011;59614;51.012;-1.648;2024-02-21T05:58:04;21.58;;;4.30;;
71108;SDS011;59614;51.012;-1.648;2024-02-21T06:00:30;18.65;;;3.80;;
71108;SDS011;59614;51.012;-1.648;2024-02-21T06:02:56;25.38;;;4.15;;
71108;SDS011;59614;51.012;-1.648;2024-02-21T06:05:21;26.70;;;3.97;;
71108;SDS011;59614;51.012;-1.648;2024-02-21T06:07:47;17.73;;;3.83;;
71108;SDS011;59614;51.012;-1.648;2024-02-21T06:10:12;18.88;;;3.78;;
71108;SDS011;59614;51.012;-1.648;2024-02-21T06:12:37;24.88;;;3.90;;
71108;SDS011;59614;51.012;-1.648;2024-02-21T06:15:03;23.80;;;4.78;;
71108;SDS011;59614;51.012;-1.648;2024-02-21T06:17:29;29.20;;;4.22;;
71108;SDS011;59614;51.012;-1.648;2024-02-21T06:19:54;25.38;;;4.65;;
71108;SDS011;59614;51.012;-1.648;2024-02-21T06:22:19;24.30;;;4.10;;
71108;SDS011;59614;51.012;-1.648;2024-02-21T06:24:45;20.65;;;3.65;;
71108;SDS011;59614;51.012;-1.648;2024-02-21T06:27:10;27.25;;;3.97;;
71108;SDS011;59614;51.012;-1.648;2024-02-21T06:29:36;24.35;;;3.80;;
71108;SDS011;59614;51.012;-1.648;2024-02-21T06:32:02;15.25;;;3.53;;
71108;SDS011;59614;51.012;-1.648;2024-02-21T06:34:28;19.35;;;3.80;;
71108;SDS011;59614;51.012;-1.648;2024-02-21T06:36:53;18.48;;;4.50;;
71108;SDS011;59614;51.012;-1.648;2024-02-21T06:39:18;23.33;;;3.90;;
71108;SDS011;59614;51.012;-1.648;2024-02-21T06:41:44;22.67;;;3.83;;
71108;SDS011;59614;51.012;-1.648;2024-02-21T06:44:09;18.23;;;3.38;;
71108;SDS011;59614;51.012;-1.648;2024-02-21T06:46:35;19.48;;;3.83;;
71108;SDS011;59614;51.012;-1.648;2024-02-21T06:49:00;20.23;;;4.43;;
71108;SDS011;59614;51.012;-1.648;2024-02-21T06:51:28;26.13;;;3.80;;
71108;SDS011;59614;51.012;-1.648;2024-02-21T06:53:54;22.13;;;4.22;;
71108;SDS011;59614;51.012;-1.648;2024-02-21T06:56:19;20.88;;;3.92;;
71108;SDS011;59614;51.012;-1.648;2024-02-21T06:58:45;21.65;;;4.25;;
71108;SDS011;59614;51.012;-1.648;2024-02-21T07:01:11;25.33;;;4.10;;
71108;SDS011;59614;51.012;-1.648;2024-02-21T07:03:36;21.17;;;4.63;;
71108;SDS011;59614;51.012;-1.648;2024-02-21T07:06:02;21.20;;;4.50;;
71108;SDS011;59614;51.012;-1.648;2024-02-21T07:08:27;18.80;;;3.80;;
71108;SDS011;59614;51.012;-1.648;2024-02-21T07:10:53;30.30;;;4.03;;
71108;SDS011;59614;51.012;-1.648;2024-02-21T07:13:18;22.40;;;4.13;;
71108;SDS011;59614;51.012;-1.648;2024-02-21T07:15:43;15.82;;;3.47;;
71108;SDS011;59614;51.012;-1.648;2024-02-21T07:18:09;26.42;;;4.30;;
71108;SDS011;59614;51.012;-1.648;2024-02-21T07:20:34;19.42;;;3.75;;
71108;SDS011;59614;51.012;-1.648;2024-02-21T07:23:02;17.65;;;3.70;;
71108;SDS011;59614;51.012;-1.648;2024-02-21T07:25:28;26.92;;;4.07;;
71108;SDS011;59614;51.012;-1.648;2024-02-21T07:27:53;17.50;;;4.03;;
71108;SDS011;59614;51.012;-1.648;2024-02-21T07:30:19;21.15;;;4.07;;
71108;SDS011;59614;51.012;-1.648;2024-02-21T07:32:44;24.42;;;3.80;;
71108;SDS011;59614;51.012;-1.648;2024-02-21T07:35:09;19.10;;;3.22;;
71108;SDS011;59614;51.012;-1.648;2024-02-21T07:37:36;15.73;;;3.53;;
71108;SDS011;59614;51.012;-1.648;2024-02-21T07:40:03;23.90;;;3.15;;
71108;SDS011;59614;51.012;-1.648;2024-02-21T07:42:32;18.33;;;3.63;;
71108;SDS011;59614;51.012;-1.648;2024-02-21T07:44:57;15.10;;;3.25;;
71108;SDS011;59614;51.012;-1.648;2024-02-21T07:47:22;19.52;;;3.60;;
71108;SDS011;59614;51.012;-1.648;2024-02-21T07:49:48;24.10;;;3.40;;
71108;SDS011;59614;51.012;-1.648;2024-02-21T07:52:14;13.52;;;2.50;;
71108;SDS011;59614;51.012;-1.648;2024-02-21T07:54:40;17.55;;;3.10;;
71108;SDS011;59614;51.012;-1.648;2024-02-21T07:57:06;11.90;;;2.92;;
71108;SDS011;59614;51.012;-1.648;2024-02-21T07:59:32;27.52;;;5.28;;
71108;SDS011;59614;51.012;-1.648;2024-02-21T08:01:57;17.10;;;3.35;;
71108;SDS011;59614;51.012;-1.648;2024-02-21T08:04:23;20.55;;;3.47;;
71108;SDS011;59614;51.012;-1.648;2024-02-21T08:06:52;9.93;;;2.83;;
71108;SDS011;59614;51.012;-1.648;2024-02-21T08:09:18;12.02;;;2.80;;
71108;SDS011;59614;51.012;-1.648;2024-02-21T08:11:44;16.50;;;3.13;;
71108;SDS011;59614;51.012;-1.648;2024-02-21T08:14:09;15.30;;;3.10;;
71108;SDS011;59614;51.012;-1.648;2024-02-21T08:16:34;15.75;;;2.70;;
71108;SDS011;59614;51.012;-1.648;2024-02-21T08:19:00;16.65;;;3.17;;
71108;SDS011;59614;51.012;-1.648;2024-02-21T08:21:27;15.55;;;3.28;;
71108;SDS011;59614;51.012;-1.648;2024-02-21T08:23:53;10.77;;;3.15;;
71108;SDS011;59614;51.012;-1.648;2024-02-21T08:26:19;11.93;;;2.40;;
71108;SDS011;59614;51.012;-1.648;2024-02-21T08:28:44;16.05;;;2.83;;
71108;SDS011;59614;51.012;-1.648;2024-02-21T08:31:10;11.85;;;2.53;;
71108;SDS011;59614;51.012;-1.648;2024-02-21T08:33:35;13.77;;;2.92;;
71108;SDS011;59614;51.012;-1.648;2024-02-21T08:36:01;32.15;;;3.25;;
71108;SDS011;59614;51.012;-1.648;2024-02-21T08:38:26;13.45;;;3.00;;
71108;SDS011;59614;51.012;-1.648;2024-02-21T08:40:51;16.02;;;3.40;;
71108;SDS011;59614;51.012;-1.648;2024-02-21T08:43:17;14.40;;;3.15;;
71108;SDS011;59614;51.012;-1.648;2024-02-21T08:45:42;18.75;;;2.90;;
71108;SDS011;59614;51.012;-1.648;2024-02-21T08:48:07;16.65;;;3.00;;
71108;SDS011;59614;51.012;-1.648;2024-02-21T08:50:33;13.93;;;2.72;;
71108;SDS011;59614;51.012;-1.648;2024-02-21T08:52:58;20.40;;;3.38;;
71108;SDS011;59614;51.012;-1.648;2024-02-21T08:55:24;14.27;;;3.85;;
71108;SDS011;59614;51.012;-1.648;2024-02-21T08:57:49;17.75;;;4.15;;
71108;SDS011;59614;51.012;-1.648;2024-02-21T09:00:15;14.45;;;2.92;;
71108;SDS011;59614;51.012;-1.648;2024-02-21T09:02:41;16.02;;;2.75;;
71108;SDS011;59614;51.012;-1.648;2024-02-21T09:05:10;15.35;;;2.40;;
71108;SDS011;59614;51.012;-1.648;2024-02-21T09:07:36;17.23;;;2.97;;
71108;SDS011;59614;51.012;-1.648;2024-02-21T09:10:01;15.40;;;2.78;;
71108;SDS011;59614;51.012;-1.648;2024-02-21T09:12:27;13.65;;;2.80;;
71108;SDS011;59614;51.012;-1.648;2024-02-21T09:14:53;9.05;;;2.38;;
71108;SDS011;59614;51.012;-1.648;2024-02-21T09:17:18;13.75;;;2.65;;
71108;SDS011;59614;51.012;-1.648;2024-02-21T09:19:45;13.98;;;2.80;;
71108;SDS011;59614;51.012;-1.648;2024-02-21T09:22:11;16.30;;;3.17;;
71108;SDS011;59614;51.012;-1.648;2024-02-21T09:24:36;16.17;;;3.40;;
71108;SDS011;59614;51.012;-1.648;2024-02-21T09:27:01;18.33;;;2.75;;
71108;SDS011;59614;51.012;-1.648;2024-02-21T09:29:27;12.00;;;2.70;;
71108;SDS011;59614;51.012;-1.648;2024-02-21T09:31:52;18.95;;;2.75;;
71108;SDS011;59614;51.012;-1.648;2024-02-21T09:34:18;14.88;;;2.85;;
71108;SDS011;59614;51.012;-1.648;2024-02-21T09:36:43;16.05;;;3.13;;
71108;SDS011;59614;51.012;-1.648;2024-02-21T09:39:09;21.30;;;2.75;;
71108;SDS011;59614;51.012;-1.648;2024-02-21T09:41:39;19.55;;;2.97;;
71108;SDS011;59614;51.012;-1.648;2024-02-21T09:44:10;13.43;;;2.60;;
71108;SDS011;59614;51.012;-1.648;2024-02-21T09:46:50;21.65;;;3.00;;
71108;SDS011;59614;51.012;-1.648;2024-02-21T09:49:23;14.27;;;2.83;;
71108;SDS011;59614;51.012;-1.648;2024-02-21T09:51:52;13.73;;;2.70;;
71108;SDS011;59614;51.012;-1.648;2024-02-21T09:54:19;11.82;;;2.38;;
71108;SDS011;59614;51.012;-1.648;2024-02-21T09:56:45;15.45;;;2.60;;
71108;SDS011;59614;51.012;-1.648;2024-02-21T09:59:12;17.60;;;2.88;;
71108;SDS011;59614;51.012;-1.648;2024-02-21T10:01:39;16.08;;;3.20;;
71108;SDS011;59614;51.012;-1.648;2024-02-21T10:04:04;16.63;;;2.65;;
71108;SDS011;59614;51.012;-1.648;2024-02-21T10:06:29;10.52;;;2.22;;
71108;SDS011;59614;51.012;-1.648;2024-02-21T10:08:55;13.10;;;2.40;;
71108;SDS011;59614;51.012;-1.648;2024-02-21T10:11:24;13.65;;;2.42;;
71108;SDS011;59614;51.012;-1.648;2024-02-21T10:13:50;12.02;;;2.47;;
71108;SDS011;59614;51.012;-1.648;2024-02-21T10:16:16;14.60;;;2.33;;
71108;SDS011;59614;51.012;-1.648;2024-02-21T10:18:41;10.68;;;2.25;;
71108;SDS011;59614;51.012;-1.648;2024-02-21T10:21:07;19.60;;;2.85;;
71108;SDS011;59614;51.012;-1.648;2024-02-21T10:26:07;13.75;;;2.25;;
71108;SDS011;59614;51.012;-1.648;2024-02-21T10:28:33;16.40;;;2.53;;
71108;SDS011;59614;51.012;-1.648;2024-02-21T10:30:58;12.68;;;2.15;;
71108;SDS011;59614;51.012;-1.648;2024-02-21T10:33:23;12.52;;;2.40;;
71108;SDS011;59614;51.012;-1.648;2024-02-21T10:35:50;12.13;;;2.15;;
71108;SDS011;59614;51.012;-1.648;2024-02-21T10:38:16;11.88;;;2.40;;
71108;SDS011;59614;51.012;-1.648;2024-02-21T10:40:41;12.25;;;2.10;;
71108;SDS011;59614;51.012;-1.648;2024-02-21T10:43:09;11.82;;;2.42;;
71108;SDS011;59614;51.012;-1.648;2024-02-21T10:45:37;11.95;;;2.25;;
71108;SDS011;59614;51.012;-1.648;2024-02-21T10:56:14;14.00;;;2.17;;
71108;SDS011;59614;51.012;-1.648;2024-02-21T10:58:47;10.75;;;2.33;;
71108;SDS011;59614;51.012;-1.648;2024-02-21T11:01:13;16.08;;;2.58;;
71108;SDS011;59614;51.012;-1.648;2024-02-21T11:03:41;11.90;;;2.10;;
71108;SDS011;59614;51.012;-1.648;2024-02-21T11:06:09;11.48;;;2.20;;
71108;SDS011;59614;51.012;-1.648;2024-02-21T11:08:37;12.82;;;2.38;;
71108;SDS011;59614;51.012;-1.648;2024-02-21T11:11:02;9.98;;;2.13;;
71108;SDS011;59614;51.012;-1.648;2024-02-21T11:13:30;9.55;;;1.95;;
71108;SDS011;59614;51.012;-1.648;2024-02-21T11:18:52;10.93;;;1.95;;
71108;SDS011;59614;51.012;-1.648;2024-02-21T11:21:17;10.60;;;1.80;;
71108;SDS011;59614;51.012;-1.648;2024-02-21T11:23:42;7.85;;;2.15;;
71108;SDS011;59614;51.012;-1.648;2024-02-21T11:26:08;10.80;;;2.03;;
71108;SDS011;59614;51.012;-1.648;2024-02-21T11:28:35;7.63;;;2.15;;
71108;SDS011;59614;51.012;-1.648;2024-02-21T11:31:11;9.85;;;2.08;;
71108;SDS011;59614;51.012;-1.648;2024-02-21T11:33:41;7.65;;;1.58;;
71108;SDS011;59614;51.012;-1.648;2024-02-21T11:36:10;7.85;;;1.80;;
71108;SDS011;59614;51.012;-1.648;2024-02-21T11:38:35;6.47;;;1.90;;
71108;SDS011;59614;51.012;-1.648;2024-02-21T11:41:01;11.90;;;2.03;;
71108;SDS011;59614;51.012;-1.648;2024-02-21T11:43:27;10.98;;;2.22;;
71108;SDS011;59614;51.012;-1.648;2024-02-21T11:46:00;8.02;;;1.95;;
71108;SDS011;59614;51.012;-1.648;2024-02-21T11:48:26;9.38;;;1.70;;
71108;SDS011;59614;51.012;-1.648;2024-02-21T11:50:57;9.50;;;1.90;;
71108;SDS011;59614;51.012;-1.648;2024-02-21T11:53:23;13.65;;;2.17;;
71108;SDS011;59614;51.012;-1.648;2024-02-21T11:55:49;10.48;;;1.88;;
71108;SDS011;59614;51.012;-1.648;2024-02-21T11:58:15;6.20;;;2.20;;
71108;SDS011;59614;51.012;-1.648;2024-02-21T12:00:41;9.40;;;2.00;;
71108;SDS011;59614;51.012;-1.648;2024-02-21T12:03:07;9.70;;;2.28;;
71108;SDS011;59614;51.012;-1.648;2024-02-21T12:05:32;7.10;;;1.98;;
71108;SDS011;59614;51.012;-1.648;2024-02-21T12:07:58;6.28;;;2.00;;
71108;SDS011;59614;51.012;-1.648;2024-02-21T12:10:25;7.68;;;1.70;;
71108;SDS011;59614;51.012;-1.648;2024-02-21T12:12:51;9.30;;;2.03;;
71108;SDS011;59614;51.012;-1.648;2024-02-21T12:15:18;5.88;;;1.70;;
71108;SDS011;59614;51.012;-1.648;2024-02-21T12:17:43;7.88;;;1.73;;
71108;SDS011;59614;51.012;-1.648;2024-02-21T12:20:09;10.95;;;2.00;;
71108;SDS011;59614;51.012;-1.648;2024-02-21T12:22:36;8.13;;;1.70;;
71108;SDS011;59614;51.012;-1.648;2024-02-21T12:25:03;7.00;;;1.58;;
71108;SDS011;59614;51.012;-1.648;2024-02-21T12:27:29;6.72;;;1.40;;
71108;SDS011;59614;51.012;-1.648;2024-02-21T12:29:55;10.13;;;1.70;;
71108;SDS011;59614;51.012;-1.648;2024-02-21T12:32:20;8.40;;;1.60;;
71108;SDS011;59614;51.012;-1.648;2024-02-21T12:34:45;6.05;;;1.58;;
71108;SDS011;59614;51.012;-1.648;2024-02-21T12:37:11;6.78;;;1.80;;
71108;SDS011;59614;51.012;-1.648;2024-02-21T12:39:40;7.57;;;1.83;;
71108;SDS011;59614;51.012;-1.648;2024-02-21T12:42:06;13.27;;;1.83;;
71108;SDS011;59614;51.012;-1.648;2024-02-21T12:44:31;8.40;;;1.85;;
71108;SDS011;59614;51.012;-1.648;2024-02-21T12:46:57;9.05;;;2.13;;
71108;SDS011;59614;51.012;-1.648;2024-02-21T12:49:22;8.93;;;1.67;;
71108;SDS011;59614;51.012;-1.648;2024-02-21T12:51:49;9.15;;;1.90;;
71108;SDS011;59614;51.012;-1.648;2024-02-21T12:54:14;8.52;;;1.90;;
71108;SDS011;59614;51.012;-1.648;2024-02-21T12:56:40;12.07;;;2.25;;
71108;SDS011;59614;51.012;-1.648;2024-02-21T12:59:05;7.53;;;2.00;;
71108;SDS011;59614;51.012;-1.648;2024-02-21T13:01:34;10.52;;;1.90;;
71108;SDS011;59614;51.012;-1.648;2024-02-21T13:04:00;9.85;;;1.85;;
71108;SDS011;59614;51.012;-1.648;2024-02-21T13:06:26;11.68;;;1.98;;
71108;SDS011;59614;51.012;-1.648;2024-02-21T13:08:51;6.65;;;2.10;;
71108;SDS011;59614;51.012;-1.648;2024-02-21T13:11:16;8.27;;;2.03;;
71108;SDS011;59614;51.012;-1.648;2024-02-21T13:13:42;10.75;;;1.95;;
71108;SDS011;59614;51.012;-1.648;2024-02-21T13:16:07;9.18;;;1.95;;
71108;SDS011;59614;51.012;-1.648;2024-02-21T13:18:34;11.30;;;2.03;;
71108;SDS011;59614;51.012;-1.648;2024-02-21T13:21:00;15.05;;;2.13;;
71108;SDS011;59614;51.012;-1.648;2024-02-21T13:23:25;14.35;;;2.05;;
71108;SDS011;59614;51.012;-1.648;2024-02-21T13:25:50;10.38;;;1.83;;
71108;SDS011;59614;51.012;-1.648;2024-02-21T13:28:16;8.27;;;1.90;;
71108;SDS011;59614;51.012;-1.648;2024-02-21T13:30:41;11.80;;;2.08;;
71108;SDS011;59614;51.012;-1.648;2024-02-21T13:33:07;11.05;;;1.90;;
71108;SDS011;59614;51.012;-1.648;2024-02-21T13:35:32;8.98;;;2.00;;
71108;SDS011;59614;51.012;-1.648;2024-02-21T13:37:58;10.20;;;2.13;;
71108;SDS011;59614;51.012;-1.648;2024-02-21T13:40:23;6.78;;;2.22;;
71108;SDS011;59614;51.012;-1.648;2024-02-21T13:42:50;9.93;;;2.00;;
71108;SDS011;59614;51.012;-1.648;2024-02-21T13:45:16;5.88;;;1.80;;
71108;SDS011;59614;51.012;-1.648;2024-02-21T13:47:42;13.55;;;2.10;;
71108;SDS011;59614;51.012;-1.648;2024-02-21T13:50:07;9.48;;;2.00;;
71108;SDS011;59614;51.012;-1.648;2024-02-21T13:52:39;12.30;;;2.42;;
71108;SDS011;59614;51.012;-1.648;2024-02-21T13:55:05;13.00;;;2.30;;
71108;SDS011;59614;51.012;-1.648;2024-02-21T13:57:33;7.38;;;2.13;;
71108;SDS011;59614;51.012;-1.648;2024-02-21T13:59:59;7.72;;;2.00;;
71108;SDS011;59614;51.012;-1.648;2024-02-21T14:02:25;10.55;;;2.33;;
71108;SDS011;59614;51.012;-1.648;2024-02-21T14:04:50;6.85;;;2.22;;
71108;SDS011;59614;51.012;-1.648;2024-02-21T14:07:15;6.72;;;2.03;;
71108;SDS011;59614;51.012;-1.648;2024-02-21T14:09:42;7.85;;;1.95;;
71108;SDS011;59614;51.012;-1.648;2024-02-21T14:12:07;11.30;;;2.15;;
71108;SDS011;59614;51.012;-1.648;2024-02-21T14:14:34;7.75;;;2.08;;
71108;SDS011;59614;51.012;-1.648;2024-02-21T14:17:01;8.90;;;2.20;;
71108;SDS011;59614;51.012;-1.648;2024-02-21T14:19:27;9.60;;;2.00;;
71108;SDS011;59614;51.012;-1.648;2024-02-21T14:21:52;7.45;;;1.80;;
71108;SDS011;59614;51.012;-1.648;2024-02-21T14:24:18;16.60;;;2.42;;
71108;SDS011;59614;51.012;-1.648;2024-02-21T14:26:43;11.75;;;1.92;;
71108;SDS011;59614;51.012;-1.648;2024-02-21T14:29:08;6.78;;;1.67;;
71108;SDS011;59614;51.012;-1.648;2024-02-21T14:31:33;9.30;;;1.80;;